createdAt,value
2019-04-06T00:02:27.899Z,68.03
2019-04-06T00:04:59.979Z,68.42
2019-04-06T00:07:31.173Z,68.52
2019-04-06T00:10:02.783Z,68.72
2019-04-06T00:12:34.017Z,68.56
2019-04-06T00:15:07.155Z,68.44
2019-04-06T00:17:38.381Z,68.74
2019-04-06T00:20:10.618Z,68.42
2019-04-06T00:22:41.838Z,68.15
2019-04-06T00:25:13.085Z,68.31
2019-04-06T00:27:46.027Z,68.35
2019-04-06T00:30:17.614Z,68.45
2019-04-06T00:32:53.807Z,68.02
2019-04-06T00:35:25.036Z,67.66
2019-04-06T00:37:56.286Z,67.79
2019-04-06T00:40:27.505Z,67.49
2019-04-06T00:42:58.723Z,67.61
2019-04-06T00:45:29.946Z,67.66
2019-04-06T00:48:01.653Z,67.31
2019-04-06T00:50:32.887Z,67.23
2019-04-06T00:53:04.518Z,67.14
2019-04-06T00:55:35.769Z,64.35
2019-04-06T00:58:07.042Z,63.49
2019-04-06T01:00:38.760Z,64.85
2019-04-06T01:03:11.104Z,65.25
2019-04-06T01:05:42.705Z,66.47
2019-04-06T01:08:13.938Z,67.07
2019-04-06T01:10:45.168Z,66.13
2019-04-06T01:13:16.591Z,66.71
2019-04-06T01:15:47.817Z,67.28
2019-04-06T01:18:19.100Z,67.11
2019-04-06T01:20:50.373Z,67.29
2019-04-06T01:23:21.617Z,68.87
2019-04-06T01:25:52.841Z,69.50
2019-04-06T01:28:24.172Z,68.60
2019-04-06T01:30:55.393Z,68.51
2019-04-06T01:33:26.612Z,68.81
2019-04-06T01:35:57.888Z,69.26
2019-04-06T01:38:30.150Z,69.31
2019-04-06T01:41:01.971Z,69.51
2019-04-06T01:43:33.182Z,69.15
2019-04-06T01:46:04.410Z,69.09
2019-04-06T01:48:35.622Z,68.61
2019-04-06T01:51:06.922Z,68.39
2019-04-06T01:53:38.132Z,68.64
2019-04-06T01:56:17.945Z,69.25
2019-04-06T01:58:42.395Z,68.89
2019-04-06T02:01:41.283Z,67.81
2019-04-06T02:04:12.637Z,66.48
2019-04-06T02:06:43.846Z,67.19
2019-04-06T02:09:15.076Z,67.00
2019-04-06T02:11:46.366Z,66.46
2019-04-06T02:14:17.622Z,67.50
2019-04-06T02:16:48.843Z,68.28
2019-04-06T02:19:20.049Z,67.12
2019-04-06T02:21:51.257Z,67.31
2019-04-06T02:24:22.805Z,67.56
2019-04-06T02:26:54.013Z,66.69
2019-04-06T02:29:25.573Z,66.22
2019-04-06T02:32:21.429Z,65.95
2019-04-06T02:35:20.828Z,65.59
2019-04-06T02:38:13.772Z,65.08
2019-04-06T02:40:49.577Z,64.72
2019-04-06T02:43:26.560Z,64.36
2019-04-06T02:45:57.761Z,63.89
2019-04-06T02:48:29.364Z,63.49
2019-04-06T02:51:01.110Z,63.85
2019-04-06T02:53:32.333Z,62.88
2019-04-06T02:56:03.549Z,62.76
2019-04-06T02:58:34.750Z,62.17
2019-04-06T03:01:05.953Z,61.50
2019-04-06T03:03:37.186Z,62.21
2019-04-06T03:06:08.416Z,62.41
2019-04-06T03:08:39.681Z,62.88
2019-04-06T03:11:11.305Z,62.59
2019-04-06T03:13:42.555Z,62.13
2019-04-06T03:16:13.781Z,62.85
2019-04-06T03:18:45.022Z,63.13
2019-04-06T03:21:17.253Z,64.68
2019-04-06T03:23:51.333Z,64.48
2019-04-06T03:26:22.489Z,65.35
2019-04-06T03:28:54.286Z,65.63
2019-04-06T03:31:27.722Z,65.98
2019-04-06T03:33:58.845Z,66.07
2019-04-06T03:36:30.305Z,66.71
2019-04-06T03:39:01.520Z,66.79
2019-04-06T03:41:34.486Z,66.91
2019-04-06T03:44:05.780Z,67.29
2019-04-06T03:46:37.009Z,67.32
2019-04-06T03:49:08.216Z,67.83
2019-04-06T03:51:39.571Z,67.82
2019-04-06T03:54:10.767Z,67.53
2019-04-06T03:56:42.069Z,66.90
2019-04-06T03:59:13.376Z,66.60
2019-04-06T04:01:45.203Z,66.66
2019-04-06T04:04:16.611Z,66.51
2019-04-06T04:06:47.876Z,67.02
2019-04-06T04:09:19.590Z,66.73
2019-04-06T04:11:50.863Z,67.02
2019-04-06T04:14:22.042Z,67.36
2019-04-06T04:16:53.280Z,66.92
2019-04-06T04:19:24.632Z,66.70
2019-04-06T04:21:57.100Z,67.31
2019-04-06T04:24:28.489Z,66.17
2019-04-06T04:26:59.654Z,66.07
2019-04-06T04:29:30.894Z,65.94
2019-04-06T04:32:02.523Z,66.53
2019-04-06T04:34:33.955Z,65.79
2019-04-06T04:37:05.218Z,64.45
2019-04-06T04:39:36.732Z,62.11
2019-04-06T04:42:08.349Z,62.98
2019-04-06T04:44:39.655Z,63.24
2019-04-06T04:47:10.883Z,64.67
2019-04-06T04:49:42.102Z,64.33
2019-04-06T04:52:13.432Z,63.95
2019-04-06T04:54:44.843Z,65.47
2019-04-06T04:57:16.076Z,65.24
2019-04-06T04:59:47.327Z,65.49
2019-04-06T05:02:18.635Z,65.46
2019-04-06T05:04:49.857Z,66.36
2019-04-06T05:07:21.063Z,67.21
2019-04-06T05:09:52.286Z,67.16
2019-04-06T05:12:23.544Z,67.39
2019-04-06T05:15:05.025Z,67.02
2019-04-06T05:17:37.566Z,67.54
2019-04-06T05:20:09.352Z,66.83
2019-04-06T05:22:40.569Z,65.59
2019-04-06T05:25:11.771Z,65.27
2019-04-06T05:27:51.870Z,65.30
2019-04-06T05:30:16.229Z,65.42
2019-04-06T05:32:47.461Z,65.16
2019-04-06T05:35:19.000Z,66.24
2019-04-06T05:37:50.318Z,66.85
2019-04-06T05:40:21.493Z,66.91
2019-04-06T05:42:52.726Z,67.20
2019-04-06T05:45:24.040Z,67.72
2019-04-06T05:47:55.219Z,67.84
2019-04-06T05:50:26.537Z,67.85
2019-04-06T05:52:57.860Z,68.30
2019-04-06T05:55:29.256Z,67.87
2019-04-06T05:58:04.208Z,67.93
2019-04-06T06:00:34.341Z,67.78
2019-04-06T06:03:05.509Z,67.87
2019-04-06T06:05:40.278Z,67.50
2019-04-06T06:08:09.605Z,67.63
2019-04-06T06:10:40.925Z,67.88
2019-04-06T06:13:12.098Z,68.11
2019-04-06T06:15:43.356Z,67.77
2019-04-06T06:18:25.433Z,68.08
2019-04-06T06:20:48.433Z,67.77
2019-04-06T06:23:20.119Z,67.60
2019-04-06T06:25:51.493Z,66.50
2019-04-06T06:28:22.744Z,66.60
2019-04-06T06:30:54.148Z,64.79
2019-04-06T06:33:25.448Z,65.33
2019-04-06T06:35:56.636Z,65.03
2019-04-06T06:38:27.810Z,65.53
2019-04-06T06:40:58.993Z,65.17
2019-04-06T06:43:30.524Z,64.75
2019-04-06T06:46:01.732Z,64.51
2019-04-06T06:48:33.092Z,65.12
2019-04-06T06:51:04.349Z,64.93
2019-04-06T06:53:35.581Z,64.80
2019-04-06T06:56:06.861Z,65.29
2019-04-06T06:58:38.063Z,65.22
2019-04-06T07:01:09.449Z,64.87
2019-04-06T07:03:41.855Z,63.81
2019-04-06T07:06:13.319Z,64.54
2019-04-06T07:08:44.575Z,64.04
2019-04-06T07:11:15.923Z,64.04
2019-04-06T07:13:47.180Z,62.54
2019-04-06T07:16:18.440Z,62.96
2019-04-06T07:18:49.689Z,63.22
2019-04-06T07:21:20.849Z,63.60
2019-04-06T07:23:52.019Z,63.71
2019-04-06T07:26:23.609Z,64.27
2019-04-06T07:28:54.799Z,63.87
2019-04-06T07:31:27.496Z,63.58
2019-04-06T07:33:58.756Z,63.57
2019-04-06T07:36:30.024Z,63.53
2019-04-06T07:39:01.257Z,63.10
2019-04-06T07:41:34.141Z,63.95
2019-04-06T07:44:06.592Z,63.48
2019-04-06T07:46:37.771Z,63.49
2019-04-06T07:49:10.318Z,64.08
2019-04-06T07:51:41.871Z,63.53
2019-04-06T07:54:13.178Z,63.18
2019-04-06T07:56:44.369Z,63.37
2019-04-06T07:59:15.947Z,63.65
2019-04-06T08:01:49.059Z,63.63
2019-04-06T08:04:20.365Z,60.11
2019-04-06T08:06:51.581Z,58.71
2019-04-06T08:09:22.798Z,59.77
2019-04-06T08:11:53.997Z,60.50
2019-04-06T08:14:25.591Z,61.48
2019-04-06T08:16:56.846Z,62.50
2019-04-06T08:19:28.061Z,61.38
2019-04-06T08:21:59.286Z,60.77
2019-04-06T08:24:30.504Z,60.99
2019-04-06T08:27:01.727Z,60.88
2019-04-06T08:29:32.992Z,60.89
2019-04-06T08:32:04.294Z,63.03
2019-04-06T08:34:35.853Z,63.29
2019-04-06T08:37:07.021Z,63.47
2019-04-06T08:39:38.272Z,62.86
2019-04-06T08:42:09.446Z,63.55
2019-04-06T08:44:40.658Z,63.02
2019-04-06T08:47:11.873Z,63.25
2019-04-06T08:49:43.105Z,63.61
2019-04-06T08:52:14.947Z,64.23
2019-04-06T08:54:46.668Z,63.56
2019-04-06T08:57:17.890Z,63.27
2019-04-06T08:59:50.670Z,61.87
2019-04-06T09:02:22.068Z,59.84
2019-04-06T09:04:53.292Z,61.12
2019-04-06T09:07:24.524Z,59.90
2019-04-06T09:09:55.712Z,58.22
2019-04-06T09:12:27.068Z,59.74
2019-04-06T09:14:58.242Z,59.98
2019-04-06T09:17:29.461Z,57.63
2019-04-06T09:20:00.731Z,53.57
2019-04-06T09:22:31.986Z,51.30
2019-04-06T09:25:03.373Z,56.37
2019-04-06T09:27:34.596Z,57.83
2019-04-06T09:30:06.292Z,58.67
2019-04-06T09:32:37.836Z,57.74
2019-04-06T09:35:09.207Z,57.78
2019-04-06T09:37:40.434Z,58.08
2019-04-06T09:40:11.684Z,54.88
2019-04-06T09:42:43.049Z,53.62
2019-04-06T09:45:33.351Z,50.97
2019-04-06T09:48:32.199Z,49.69
2019-04-06T09:51:19.286Z,47.08
2019-04-06T09:54:07.864Z,47.61
2019-04-06T09:57:05.827Z,46.16
2019-04-06T09:59:56.724Z,44.04
2019-04-06T10:02:54.893Z,48.70
2019-04-06T10:05:44.694Z,45.75
2019-04-06T10:08:47.108Z,44.18
2019-04-06T10:11:43.285Z,47.69
2019-04-06T10:14:26.323Z,44.43
2019-04-06T10:17:19.521Z,44.63
2019-04-06T10:20:24.612Z,44.09
2019-04-06T10:23:20.795Z,43.64
2019-04-06T10:26:13.974Z,44.58
2019-04-06T10:29:03.705Z,44.56
2019-04-06T10:31:51.962Z,41.69
2019-04-06T10:34:41.148Z,43.46
2019-04-06T10:37:29.948Z,44.65
2019-04-06T10:40:11.082Z,44.17
2019-04-06T10:43:10.422Z,47.14
2019-04-06T10:45:51.831Z,45.03
2019-04-06T10:48:40.929Z,44.88
2019-04-06T10:51:34.041Z,49.52
2019-04-06T10:54:33.391Z,51.85
2019-04-06T10:57:23.520Z,52.16
2019-04-06T11:00:19.848Z,50.18
2019-04-06T11:03:05.357Z,48.48
2019-04-06T11:05:55.540Z,46.43
2019-04-06T11:08:54.590Z,45.37
2019-04-06T11:12:02.690Z,43.69
2019-04-06T11:14:45.493Z,39.39
2019-04-06T11:17:44.223Z,39.51
2019-04-06T11:20:33.245Z,42.85
2019-04-06T11:23:35.559Z,41.10
2019-04-06T11:26:24.094Z,41.42
2019-04-06T11:29:16.937Z,41.27
2019-04-06T11:32:15.675Z,40.05
2019-04-06T11:35:18.111Z,41.19
2019-04-06T11:38:06.997Z,41.47
2019-04-06T11:41:00.022Z,41.93
2019-04-06T11:43:42.696Z,44.67
2019-04-06T11:46:28.287Z,43.49
2019-04-06T11:49:20.102Z,43.49
2019-04-06T11:52:13.557Z,42.68
2019-04-06T11:54:54.021Z,41.97
2019-04-06T11:57:35.164Z,41.86
2019-04-06T12:00:31.412Z,42.27
2019-04-06T12:03:24.523Z,43.14
2019-04-06T12:06:27.373Z,43.99
2019-04-06T12:09:09.986Z,43.71
2019-04-06T12:11:48.297Z,40.16
2019-04-06T12:14:47.363Z,39.97
2019-04-06T12:17:46.354Z,40.36
2019-04-06T12:20:39.369Z,38.95
2019-04-06T12:23:28.442Z,40.01
2019-04-06T12:26:11.854Z,40.31
2019-04-06T12:29:09.116Z,42.24
2019-04-06T12:32:01.892Z,42.48
2019-04-06T12:34:54.995Z,43.05
2019-04-06T12:37:45.792Z,43.47
2019-04-06T12:40:27.111Z,45.34
2019-04-06T12:43:35.552Z,47.67
2019-04-06T12:46:23.789Z,52.35
2019-04-06T12:49:12.335Z,55.30
2019-04-06T12:52:02.440Z,55.05
2019-04-06T12:55:04.654Z,55.23
2019-04-06T12:57:57.898Z,54.13
2019-04-06T13:00:52.129Z,52.43
2019-04-06T13:03:39.246Z,51.61
2019-04-06T13:06:29.318Z,52.41
2019-04-06T13:09:15.978Z,54.35
2019-04-06T13:12:12.640Z,56.73
2019-04-06T13:15:03.075Z,56.55
2019-04-06T13:17:53.889Z,57.31
2019-04-06T13:20:42.452Z,57.44
2019-04-06T13:23:37.382Z,58.69
2019-04-06T13:26:16.888Z,58.29
2019-04-06T13:29:03.513Z,57.07
2019-04-06T13:31:50.901Z,56.66
2019-04-06T13:34:28.616Z,56.30
2019-04-06T13:37:24.932Z,57.18
2019-04-06T13:40:18.083Z,56.75
2019-04-06T13:43:24.626Z,57.66
2019-04-06T13:46:08.529Z,56.13
2019-04-06T13:49:01.733Z,55.85
2019-04-06T13:51:54.378Z,53.08
2019-04-06T13:54:56.472Z,53.67
2019-04-06T13:57:49.339Z,54.06
2019-04-06T14:00:42.479Z,49.76
2019-04-06T14:03:25.799Z,49.63
2019-04-06T14:06:18.786Z,50.04
2019-04-06T14:09:17.671Z,50.26
2019-04-06T14:12:17.174Z,49.80
2019-04-06T14:15:03.950Z,50.57
2019-04-06T14:17:54.085Z,49.71
2019-04-06T14:20:37.149Z,51.73
2019-04-06T14:23:37.242Z,51.52
2019-04-06T14:26:35.589Z,50.25
2019-04-06T14:31:56.945Z,50.64
2019-04-06T14:35:06.033Z,50.75
2019-04-06T14:37:59.049Z,50.74
2019-04-06T14:40:37.847Z,48.90
2019-04-06T14:43:35.566Z,48.32
2019-04-06T14:46:19.428Z,48.28
2019-04-06T14:49:29.574Z,47.72
2019-04-06T14:52:06.733Z,47.83
2019-04-06T14:54:59.956Z,47.88
2019-04-06T14:57:50.210Z,48.45
2019-04-06T15:00:36.288Z,47.93
2019-04-06T15:03:29.641Z,47.58
2019-04-06T15:06:17.260Z,48.47
2019-04-06T15:09:10.999Z,47.99
2019-04-06T15:12:01.285Z,47.90
2019-04-06T15:14:50.486Z,48.49
2019-04-06T15:17:43.586Z,49.56
2019-04-06T15:20:26.055Z,49.54
2019-04-06T15:23:22.323Z,49.97
2019-04-06T15:26:21.286Z,49.84
2019-04-06T15:29:10.123Z,49.77
2019-04-06T15:32:03.187Z,48.33
2019-04-06T15:34:53.281Z,49.56
2019-04-06T15:37:34.285Z,47.61
2019-04-06T15:40:17.204Z,51.08
2019-04-06T15:43:19.790Z,50.55
2019-04-06T15:46:01.253Z,52.38
2019-04-06T15:48:57.443Z,53.89
2019-04-06T15:51:50.519Z,54.54
2019-04-06T15:54:36.657Z,54.68
2019-04-06T15:57:22.489Z,55.66
2019-04-06T16:00:12.584Z,56.12
2019-04-06T16:02:55.493Z,54.07
2019-04-06T16:05:42.423Z,54.54
2019-04-06T16:08:38.836Z,54.82
2019-04-06T16:11:37.859Z,56.44
2019-04-06T16:14:19.468Z,55.24
2019-04-06T16:17:18.471Z,55.37
2019-04-06T16:20:14.630Z,55.38
2019-04-06T16:22:59.193Z,56.08
2019-04-06T16:25:52.243Z,54.82
2019-04-06T16:28:40.833Z,54.68
2019-04-06T16:31:26.901Z,54.01
2019-04-06T16:34:15.749Z,54.74
2019-04-06T16:37:06.240Z,54.11
2019-04-06T16:39:56.344Z,53.92
2019-04-06T16:42:44.974Z,53.24
2019-04-06T16:45:45.629Z,53.21
2019-04-06T16:48:35.734Z,53.78
2019-04-06T16:51:17.063Z,52.44
2019-04-06T16:54:10.489Z,52.11
2019-04-06T16:56:50.710Z,51.92
2019-04-06T16:59:50.052Z,51.88
2019-04-06T17:02:45.619Z,51.51
2019-04-06T17:05:36.251Z,51.88
2019-04-06T17:08:16.578Z,51.57
2019-04-06T17:11:06.922Z,51.41
2019-04-06T17:13:56.128Z,51.15
2019-04-06T17:16:45.145Z,51.21
2019-04-06T17:19:48.656Z,52.23
2019-04-06T17:22:47.773Z,53.87
2019-04-06T17:25:27.783Z,55.99
2019-04-06T17:28:18.488Z,55.96
2019-04-06T17:30:59.458Z,53.76
2019-04-06T17:33:51.027Z,53.90
2019-04-06T17:36:44.220Z,52.81
2019-04-06T17:39:49.436Z,53.90
2019-04-06T17:42:29.616Z,53.91
2019-04-06T17:45:24.249Z,54.52
2019-04-06T17:48:23.956Z,53.85
2019-04-06T17:51:17.180Z,53.82
2019-04-06T17:54:07.378Z,53.20
2019-04-06T17:56:54.897Z,53.37
2019-04-06T17:59:43.569Z,53.44
2019-04-06T18:02:33.693Z,53.40
2019-04-06T18:05:33.739Z,53.70
2019-04-06T18:08:38.274Z,53.46
2019-04-06T18:11:31.258Z,54.60
2019-04-06T18:14:02.546Z,54.45
2019-04-06T18:16:36.447Z,54.67
2019-04-06T18:19:07.722Z,55.27
2019-04-06T18:21:39.160Z,55.38
2019-04-06T18:24:10.505Z,55.82
2019-04-06T18:26:41.897Z,56.23
2019-04-06T18:29:13.428Z,56.89
2019-04-06T18:32:03.629Z,57.67
2019-04-06T18:34:35.584Z,57.64
2019-04-06T18:37:25.723Z,59.00
2019-04-06T18:39:57.930Z,59.74
2019-04-06T18:42:29.659Z,61.46
2019-04-06T18:45:02.096Z,62.29
2019-04-06T18:47:34.730Z,62.89
2019-04-06T18:50:06.326Z,61.77
2019-04-06T18:52:37.586Z,62.15
2019-04-06T18:57:21.234Z,61.61
2019-04-06T18:59:53.158Z,61.71
2019-04-06T19:02:25.873Z,61.95
2019-04-06T19:04:57.770Z,62.62
2019-04-06T19:07:29.560Z,62.54
2019-04-06T19:10:04.214Z,62.55
2019-04-06T19:12:37.012Z,63.58
2019-04-06T19:15:10.692Z,62.06
2019-04-06T19:17:42.907Z,62.89
2019-04-06T19:20:15.948Z,63.63
2019-04-06T19:22:47.974Z,63.53
2019-04-06T19:25:20.564Z,63.85
2019-04-06T19:27:53.482Z,64.60
2019-04-06T19:30:26.014Z,66.00
2019-04-06T19:32:57.864Z,66.34
2019-04-06T19:35:29.701Z,65.56
2019-04-06T19:38:04.658Z,65.16
2019-04-06T19:40:37.211Z,65.38
2019-04-06T19:43:09.315Z,65.76
2019-04-06T19:45:43.033Z,65.65
2019-04-06T19:48:15.275Z,65.85
2019-04-06T19:50:47.542Z,66.14
2019-04-06T19:53:19.365Z,67.23
2019-04-06T19:55:51.179Z,67.07
2019-04-06T19:58:22.974Z,67.64
2019-04-06T20:00:54.771Z,67.82
2019-04-06T20:03:34.717Z,67.30
2019-04-06T20:06:00.670Z,67.36
2019-04-06T20:08:33.562Z,67.00
2019-04-06T20:11:05.487Z,66.99
2019-04-06T20:13:37.747Z,67.32
2019-04-06T20:16:09.851Z,67.10
2019-04-06T20:18:41.778Z,67.47
2019-04-06T20:23:44.686Z,68.15
2019-04-06T20:26:16.501Z,68.29
2019-04-06T20:28:48.443Z,67.84
2019-04-06T20:31:20.685Z,67.97
2019-04-06T20:33:53.410Z,67.87
2019-04-06T20:36:26.215Z,68.20
2019-04-06T20:38:58.200Z,67.97
2019-04-06T20:41:30.556Z,68.22
2019-04-06T20:44:03.418Z,67.98
2019-04-06T20:59:58.292Z,67.24
2019-04-06T21:02:32.450Z,67.62
2019-04-06T21:05:04.301Z,67.48
2019-04-06T21:07:37.043Z,67.55
2019-04-06T21:10:09.825Z,67.46
2019-04-06T21:12:42.168Z,67.43
2019-04-06T21:15:19.006Z,67.31
2019-04-06T21:17:48.188Z,67.12
2019-04-06T21:20:20.905Z,66.86
2019-04-06T21:22:53.087Z,67.12
2019-04-06T21:25:25.023Z,67.36
2019-04-06T21:27:56.905Z,67.41
2019-04-06T21:30:28.912Z,67.01
2019-04-06T21:33:01.142Z,66.91
2019-04-06T21:35:34.677Z,67.06
2019-04-06T21:38:06.763Z,66.91
2019-04-06T21:40:38.683Z,67.32
2019-04-06T21:43:10.743Z,67.36
2019-04-06T21:45:44.500Z,67.41
2019-04-06T21:48:17.077Z,66.87
2019-04-06T21:50:49.148Z,67.04
2019-04-06T21:53:21.996Z,68.17
2019-04-06T21:56:02.117Z,69.12
2019-04-06T21:58:28.765Z,69.35
2019-04-06T22:01:02.896Z,68.98
2019-04-06T22:03:36.440Z,67.72
2019-04-06T22:06:09.117Z,67.08
2019-04-06T22:08:41.803Z,67.70
2019-04-06T22:11:13.921Z,69.49
2019-04-06T22:13:47.398Z,69.85
2019-04-06T22:16:19.675Z,69.64
2019-04-06T22:18:52.057Z,69.38
2019-04-06T22:21:23.985Z,69.20
2019-04-06T22:23:55.981Z,68.77
2019-04-06T22:26:27.853Z,68.76
2019-04-06T22:28:59.902Z,69.50
2019-04-06T22:31:32.338Z,68.94
2019-04-06T22:34:04.914Z,69.47
2019-04-06T22:36:37.137Z,69.57
2019-04-06T22:39:11.126Z,69.27
2019-04-06T22:41:43.312Z,69.71
2019-04-06T22:44:15.385Z,69.50
2019-04-06T22:46:47.569Z,68.85
2019-04-06T22:49:19.501Z,68.51
2019-04-06T22:51:51.621Z,68.20
2019-04-06T22:54:23.968Z,68.34
2019-04-06T22:56:55.717Z,68.62
2019-04-06T22:59:27.579Z,68.62
2019-04-06T23:01:59.784Z,68.54
2019-04-06T23:04:48.502Z,67.76
2019-04-06T23:07:18.139Z,67.87
2019-04-06T23:09:49.826Z,67.87
2019-04-06T23:12:22.205Z,68.32
2019-04-06T23:14:54.156Z,68.34
2019-04-06T23:17:38.553Z,68.29
2019-04-06T23:20:10.647Z,68.57
2019-04-06T23:22:42.405Z,69.14
2019-04-06T23:25:14.914Z,68.97
2019-04-06T23:27:47.838Z,68.75
2019-04-06T23:30:19.627Z,68.13
2019-04-06T23:32:51.407Z,68.17
2019-04-06T23:35:23.573Z,69.69
2019-04-06T23:37:56.191Z,68.88
2019-04-06T23:40:28.314Z,69.16
2019-04-06T23:43:00.060Z,69.70
2019-04-06T23:45:34.350Z,69.09
2019-04-06T23:48:06.367Z,68.54
2019-04-06T23:50:38.287Z,68.48
2019-04-06T23:53:10.075Z,69.03
2019-04-06T23:55:42.195Z,69.17
2019-04-06T23:58:14.050Z,69.52
